Time;durP1;ratioP1;P1;durP2;ratioP2;P2;SDS_P1;SDS_P2;PMS_P1;PMS_P2;Temp;Humidity;BMP_temperature;BMP_pressure;BME280_temperature;BME280_humidity;BME280_pressure;Samples;Min_cycle;Max_cycle;Signal;HPM_P1;HPM_P2
2022/11/17 00:01:52;;;;;;;9.27;4.30;;;;;;;10.06;100.00;98760.78;5136376;27;20058;-65
2022/11/17 00:04:18;;;;;;;9.63;4.47;;;;;;;10.07;100.00;98746.69;5136161;27;20027;-66
2022/11/17 00:06:43;;;;;;;10.05;4.68;;;;;;;10.02;100.00;98754.69;5117935;27;20102;-65
2022/11/17 00:09:16;;;;;;;8.75;5.25;;;;;;;10.01;100.00;98737.13;5136356;27;20031;-65
2022/11/17 00:14:32;;;;;;;8.85;4.00;;;;;;;10.06;100.00;98737.03;5136447;27;20045;-65
2022/11/17 00:17:12;;;;;;;9.20;4.20;;;;;;;10.06;100.00;98716.78;5136082;27;20030;-65
2022/11/17 00:22:22;;;;;;;8.55;4.50;;;;;;;10.04;100.00;98716.81;5136119;27;20080;-65
2022/11/17 00:24:48;;;;;;;8.25;4.05;;;;;;;10.04;100.00;98700.13;5135972;27;20023;-65
2022/11/17 00:27:14;;;;;;;7.90;4.63;;;;;;;10.05;100.00;98701.84;5117798;27;20027;-65
2022/11/17 00:29:39;;;;;;;7.53;4.38;;;;;;;10.08;100.00;98683.34;5135591;27;20396;-66
2022/11/17 00:34:54;;;;;;;8.93;4.20;;;;;;;10.07;100.00;98676.31;5136137;27;20047;-66
2022/11/17 00:37:20;;;;;;;10.25;4.38;;;;;;;10.07;100.00;98657.00;5135740;27;20023;-65
2022/11/17 00:39:45;;;;;;;8.57;4.85;;;;;;;10.08;100.00;98656.94;5135685;27;20054;-66
2022/11/17 00:42:10;;;;;;;5.65;3.90;;;;;;;10.07;100.00;98652.56;5135751;27;20074;-66
2022/11/17 00:44:36;;;;;;;9.52;4.18;;;;;;;10.09;100.00;98645.47;5135709;27;20031;-66
2022/11/17 00:47:01;;;;;;;6.90;4.40;;;;;;;10.11;100.00;98687.69;5135552;27;20023;-67
2022/11/17 00:49:27;;;;;;;9.45;4.10;;;;;;;10.10;100.00;98639.28;5116979;27;20019;-67
2022/11/17 00:51:54;;;;;;;9.95;4.30;;;;;;;10.07;100.00;98643.78;5135458;27;20084;-67
2022/11/17 00:54:19;;;;;;;8.48;3.90;;;;;;;10.08;100.00;98641.13;5135284;27;20023;-67
2022/11/17 00:56:45;;;;;;;8.90;4.65;;;;;;;10.08;100.00;98634.97;5135367;27;20098;-68
2022/11/17 00:59:11;;;;;;;9.45;3.70;;;;;;;10.06;100.00;98640.25;5135470;27;20038;-67
2022/11/17 01:01:37;;;;;;;8.57;4.00;;;;;;;10.09;100.00;98639.34;5135119;27;20031;-68
2022/11/17 01:04:03;;;;;;;8.18;4.28;;;;;;;10.10;100.00;98626.09;5135369;27;20030;-68
2022/11/17 01:06:30;;;;;;;7.60;3.72;;;;;;;10.08;100.00;98629.69;5135123;27;20023;-68
2022/11/17 01:08:58;;;;;;;7.40;3.78;;;;;;;10.09;100.00;98627.00;5134078;27;20094;-68
2022/11/17 01:11:24;;;;;;;6.07;3.55;;;;;;;10.11;100.00;98637.56;5135116;27;20383;-68
2022/11/17 01:13:53;;;;;;;8.75;3.55;;;;;;;10.11;100.00;98619.94;5134982;27;20023;-68
2022/11/17 01:16:19;;;;;;;8.77;3.58;;;;;;;10.11;100.00;98629.63;5134945;27;20047;-68
2022/11/17 01:18:47;;;;;;;6.68;3.15;;;;;;;10.11;100.00;98627.00;5116434;27;20428;-70
2022/11/17 01:21:15;;;;;;;6.85;3.50;;;;;;;10.11;100.00;98611.16;5134900;27;20027;-68
2022/11/17 01:23:43;;;;;;;5.50;3.25;;;;;;;10.13;100.00;98594.38;5134750;27;20027;-69
2022/11/17 01:26:17;;;;;;;6.22;2.85;;;;;;;10.15;100.00;98597.84;5134830;27;20023;-68
2022/11/17 01:28:43;;;;;;;4.50;2.40;;;;;;;10.19;100.00;98578.41;5134751;27;20069;-69
2022/11/17 01:31:14;;;;;;;3.40;2.35;;;;;;;10.24;100.00;98612.59;5134582;27;20051;-69
2022/11/17 01:33:39;;;;;;;4.55;2.45;;;;;;;10.25;100.00;98595.88;5134561;27;20023;-69
2022/11/17 01:36:07;;;;;;;4.72;2.80;;;;;;;10.26;100.00;98579.13;5134578;27;20054;-69
2022/11/17 01:38:33;;;;;;;4.28;2.38;;;;;;;10.31;100.00;98593.09;5134497;27;20024;-68
2022/11/17 01:41:01;;;;;;;3.90;2.30;;;;;;;10.36;100.00;98587.69;5134354;27;20064;-68
2022/11/17 01:43:38;;;;;;;3.67;2.20;;;;;;;10.43;100.00;98576.09;5134315;27;20019;-69
2022/11/17 01:46:10;;;;;;;4.53;2.22;;;;;;;10.39;100.00;98566.50;5134340;27;20020;-68
2022/11/17 01:48:35;;;;;;;5.53;2.20;;;;;;;10.47;100.00;98560.13;5134440;27;20031;-69
2022/11/17 01:51:03;;;;;;;5.63;2.08;;;;;;;10.46;100.00;98561.03;5134232;27;20079;-67
2022/11/17 01:53:30;;;;;;;3.55;2.10;;;;;;;10.46;100.00;98587.44;5134099;27;20028;-68
2022/11/17 01:56:01;;;;;;;4.65;2.20;;;;;;;10.46;100.00;98550.47;5115669;27;20030;-68
2022/11/17 01:58:31;;;;;;;5.25;2.38;;;;;;;10.48;100.00;98539.88;5134193;27;20019;-68
2022/11/17 02:00:57;;;;;;;4.70;2.25;;;;;;;10.45;100.00;98532.03;5134158;27;20030;-68
2022/11/17 02:03:25;;;;;;;5.90;2.50;;;;;;;10.46;100.00;98531.13;5134137;27;20023;-67
2022/11/17 02:05:58;;;;;;;6.28;2.40;;;;;;;10.48;100.00;98526.66;5134130;27;20579;-68
2022/11/17 02:08:27;;;;;;;4.60;2.05;;;;;;;10.52;100.00;98537.09;5133974;27;20068;-69
2022/11/17 02:10:52;;;;;;;2.80;2.17;;;;;;;10.52;100.00;98537.09;5134017;27;20055;-67
2022/11/17 02:13:20;;;;;;;3.70;2.15;;;;;;;10.52;100.00;98536.25;5133862;27;20073;-70
2022/11/17 02:15:46;;;;;;;4.00;2.15;;;;;;;10.57;99.75;98538.75;5133960;27;20102;-67
2022/11/17 02:18:12;;;;;;;2.65;2.00;;;;;;;10.57;99.62;98534.34;5133899;27;20054;-66
2022/11/17 02:20:46;;;;;;;2.95;2.03;;;;;;;10.55;100.00;98530.88;5133807;27;20027;-67
2022/11/17 02:23:34;;;;;;;3.83;1.83;;;;;;;10.55;100.00;98515.03;5115313;28;20121;-67
2022/11/17 02:26:03;;;;;;;3.72;2.20;;;;;;;10.62;99.13;98542.13;5116929;28;20031;-67
2022/11/17 02:28:35;;;;;;;2.65;1.80;;;;;;;10.60;99.13;98522.84;5133753;28;20030;-66
2022/11/17 02:31:09;;;;;;;3.58;2.28;;;;;;;10.59;99.17;98506.13;5133082;28;20047;-66
2022/11/17 02:33:56;;;;;;;3.00;2.10;;;;;;;10.54;100.00;98529.16;5133337;28;20023;-67
2022/11/17 02:36:40;;;;;;;4.28;2.33;;;;;;;10.57;99.44;98520.28;5133858;28;20034;-67
2022/11/17 02:39:54;;;;;;;3.22;2.13;;;;;;;10.65;99.14;98520.94;5133719;28;20031;-66
2022/11/17 02:45:20;;;;;;;3.28;2.28;;;;;;;10.62;98.68;98502.53;5070728;28;20043;-67
2022/11/17 02:47:46;;;;;;;;;;;;;;;10.63;98.86;98496.34;5119742;28;20031;-67
2022/11/17 02:50:13;;;;;;;3.10;2.08;;;;;;;10.60;98.29;98480.59;5133668;28;19915;-66
2022/11/17 02:52:39;;;;;;;2.83;2.00;;;;;;;10.63;98.36;98499.00;5133558;28;20023;-67
2022/11/17 02:55:09;;;;;;;3.65;1.92;;;;;;;10.59;98.38;98492.06;5133461;28;20430;-66
2022/11/17 02:57:39;;;;;;;4.13;2.20;;;;;;;10.58;98.68;98475.34;5133563;28;20027;-66
2022/11/17 03:00:11;;;;;;;2.97;2.00;;;;;;;10.54;98.68;98460.50;5133559;28;20035;-66
2022/11/17 03:03:11;;;;;;;3.20;1.88;;;;;;;10.55;98.57;98456.94;5133153;28;20080;-66
2022/11/17 03:05:55;;;;;;;3.25;2.10;;;;;;;10.57;98.59;98478.03;5115047;28;20031;-65
2022/11/17 03:08:47;;;;;;;2.45;1.70;;;;;;;10.51;98.27;98452.66;5133676;28;20034;-66
2022/11/17 03:11:13;;;;;;;3.25;1.80;;;;;;;10.53;97.93;98453.47;5122187;28;20055;-65
2022/11/17 03:14:05;;;;;;;3.05;1.80;;;;;;;10.51;98.66;98439.47;5133270;28;20123;-66
2022/11/17 03:16:40;;;;;;;2.65;1.83;;;;;;;10.48;98.35;98440.41;5133312;28;20034;-66
2022/11/17 03:19:32;;;;;;;2.30;1.52;;;;;;;10.48;98.68;98436.88;5133502;28;20050;-66
2022/11/17 03:22:25;;;;;;;4.00;1.90;;;;;;;10.46;98.81;98434.31;5124896;28;20028;-66
2022/11/17 03:24:56;;;;;;;3.30;1.90;;;;;;;10.48;98.17;98410.50;5133314;28;20268;-66
2022/11/17 03:27:34;;;;;;;2.47;1.73;;;;;;;10.45;98.26;98437.88;5133436;28;20476;-65
2022/11/17 03:30:03;;;;;;;2.30;1.75;;;;;;;10.47;98.06;98411.41;5133116;28;20039;-65
2022/11/17 03:32:35;;;;;;;1.88;1.40;;;;;;;10.44;98.59;98411.47;5135567;27;20047;-65
2022/11/17 03:35:09;;;;;;;3.42;1.40;;;;;;;10.42;98.85;98421.22;5136833;27;20476;-65
2022/11/17 03:37:38;;;;;;;4.15;1.40;;;;;;;10.41;98.42;98411.59;5137255;27;20031;-65
2022/11/17 03:40:08;;;;;;;6.07;1.60;;;;;;;10.36;98.30;98410.81;5136822;27;20023;-65
2022/11/17 03:42:37;;;;;;;3.63;1.23;;;;;;;10.39;97.83;98421.31;5136616;27;20027;-65
2022/11/17 03:45:13;;;;;;;3.58;1.40;;;;;;;10.31;98.56;98410.94;5136753;27;20034;-65
2022/11/17 03:47:40;;;;;;;1.58;1.20;;;;;;;10.32;98.32;98410.06;5136790;27;20019;-66
2022/11/17 03:50:35;;;;;;;1.45;1.30;;;;;;;10.33;98.57;98397.72;5136151;27;20519;-65
2022/11/17 03:53:02;;;;;;;3.22;1.20;;;;;;;10.32;98.85;98398.63;5134582;27;20050;-65
2022/11/17 03:55:35;;;;;;;1.55;1.20;;;;;;;10.31;98.54;98408.31;5136631;27;20042;-65
2022/11/17 03:58:08;;;;;;;3.58;1.20;;;;;;;10.31;98.65;98394.25;5118113;27;20827;-66
2022/11/17 04:00:35;;;;;;;4.13;1.35;;;;;;;10.32;98.51;98395.97;5136539;27;20026;-65
2022/11/17 04:03:00;;;;;;;2.20;1.33;;;;;;;10.32;99.13;98380.13;5117666;27;20019;-66
2022/11/17 04:05:26;;;;;;;2.85;1.52;;;;;;;10.33;98.88;98377.47;5117950;27;20477;-65
2022/11/17 04:07:51;;;;;;;2.58;1.40;;;;;;;10.35;99.07;98373.00;5136311;27;20027;-65
2022/11/17 04:10:23;;;;;;;2.08;1.30;;;;;;;10.39;98.45;98377.28;5136116;27;20414;-65
2022/11/17 04:18:18;;;;;;;2.60;1.70;;;;;;;10.51;98.46;98379.59;5136557;27;20046;-65
2022/11/17 04:20:44;;;;;;;4.47;1.90;;;;;;;10.55;98.08;98374.22;5135881;27;20492;-65
2022/11/17 04:23:14;;;;;;;2.42;2.08;;;;;;;10.56;98.33;98392.66;5135877;27;20022;-65
2022/11/17 04:28:36;;;;;;;4.40;2.38;;;;;;;10.62;98.00;98394.25;5136200;27;20084;-69
2022/11/17 04:31:13;;;;;;;3.05;2.20;;;;;;;10.59;98.12;98408.44;5135825;27;20047;-66
2022/11/17 04:33:47;;;;;;;2.90;2.20;;;;;;;10.58;98.12;98379.41;5117161;27;20434;-66
2022/11/17 04:36:14;;;;;;;2.90;2.00;;;;;;;10.56;98.79;98408.50;5117266;27;20114;-67
2022/11/17 04:38:45;;;;;;;4.75;1.88;;;;;;;10.56;98.64;98382.09;5135746;27;20023;-68
2022/11/17 04:43:56;;;;;;;3.20;2.00;;;;;;;10.49;100.00;98376.16;5135414;27;20121;-68
2022/11/17 04:46:23;;;;;;;3.15;1.90;;;;;;;10.47;100.00;98371.81;5117180;27;20110;-68
2022/11/17 04:48:49;;;;;;;2.55;1.80;;;;;;;10.45;100.00;98358.66;5135526;27;20484;-68
2022/11/17 04:51:15;;;;;;;5.40;2.00;;;;;;;10.42;100.00;98356.09;5135395;27;20020;-68
2022/11/17 04:53:42;;;;;;;3.63;1.90;;;;;;;10.38;100.00;98357.09;5135068;27;20092;-67
2022/11/17 04:56:08;;;;;;;4.70;2.00;;;;;;;10.38;100.00;98346.53;5135321;27;20030;-68
2022/11/17 04:58:33;;;;;;;3.15;1.90;;;;;;;10.36;100.00;98339.56;5135224;27;20451;-67
2022/11/17 05:01:11;;;;;;;3.63;1.70;;;;;;;10.36;100.00;98342.19;5135330;27;20024;-68
2022/11/17 05:03:41;;;;;;;4.35;1.90;;;;;;;10.34;100.00;98342.25;5135029;27;20038;-69
2022/11/17 05:06:08;;;;;;;3.28;1.90;;;;;;;10.33;100.00;98335.25;5135243;27;20054;-67
2022/11/17 05:08:37;;;;;;;3.47;1.65;;;;;;;10.31;100.00;98338.81;5116711;27;20027;-68
2022/11/17 05:13:49;;;;;;;3.45;1.90;;;;;;;10.28;100.00;98335.38;5135345;27;20088;-68
2022/11/17 05:18:59;;;;;;;3.17;1.80;;;;;;;10.33;100.00;98343.16;5135313;27;20084;-68
2022/11/17 05:21:25;;;;;;;4.57;1.95;;;;;;;10.36;100.00;98350.97;5134746;27;20389;-68
2022/11/17 05:23:53;;;;;;;3.78;1.80;;;;;;;10.35;100.00;98340.47;5116369;27;20027;-67
2022/11/17 05:26:23;;;;;;;4.07;2.15;;;;;;;10.32;100.00;98349.38;5134682;27;20019;-67
2022/11/17 05:28:48;;;;;;;4.78;1.80;;;;;;;10.42;100.00;98350.81;5116301;27;20396;-67
2022/11/17 05:31:14;;;;;;;5.53;2.00;;;;;;;10.50;100.00;98367.31;5134316;27;20046;-68
2022/11/17 05:33:40;;;;;;;7.72;2.00;;;;;;;10.52;100.00;98368.13;5134361;27;20031;-69
2022/11/17 05:36:05;;;;;;;6.78;1.98;;;;;;;10.52;100.00;98376.03;5134396;27;20110;-68
2022/11/17 05:38:31;;;;;;;8.68;2.10;;;;;;;10.50;100.00;98377.00;5134369;27;20429;-68
2022/11/17 05:40:57;;;;;;;4.50;1.80;;;;;;;10.54;100.00;98394.50;5134425;27;20023;-67
2022/11/17 05:43:23;;;;;;;5.82;1.90;;;;;;;10.56;100.00;98383.88;5134354;27;20483;-67
2022/11/17 05:45:48;;;;;;;6.85;1.70;;;;;;;10.55;100.00;98374.22;5134281;27;20027;-67
2022/11/17 05:48:14;;;;;;;6.85;2.00;;;;;;;10.54;100.00;98383.94;5134334;27;20487;-68
2022/11/17 05:50:40;;;;;;;5.20;2.08;;;;;;;10.54;100.00;98381.28;5134249;27;20027;-68
2022/11/17 05:53:06;;;;;;;8.10;1.98;;;;;;;10.51;100.00;98384.00;5134249;27;20034;-67
2022/11/17 05:55:32;;;;;;;4.88;1.90;;;;;;;10.50;100.00;98388.44;5133579;27;20054;-67
2022/11/17 05:58:02;;;;;;;3.33;1.80;;;;;;;10.49;100.00;98388.44;5115739;27;20092;-68
2022/11/17 06:00:29;;;;;;;4.18;1.60;;;;;;;10.49;100.00;98388.44;5134195;27;20391;-67
2022/11/17 06:02:59;;;;;;;9.00;2.00;;;;;;;10.50;100.00;98403.41;5133765;27;20023;-68
2022/11/17 06:05:24;;;;;;;5.88;1.90;;;;;;;10.51;100.00;98399.84;5115630;27;20047;-68
2022/11/17 06:07:53;;;;;;;5.75;1.95;;;;;;;10.50;100.00;98388.44;5134138;27;20057;-67
2022/11/17 06:10:19;;;;;;;8.23;1.90;;;;;;;10.55;100.00;98411.19;5116177;27;20023;-68
2022/11/17 06:12:45;;;;;;;10.00;2.38;;;;;;;10.54;100.00;98397.13;5133946;27;20392;-67
2022/11/17 06:15:10;;;;;;;10.57;2.10;;;;;;;10.55;100.00;98404.13;5133970;27;20492;-67
2022/11/17 06:17:40;;;;;;;7.03;2.17;;;;;;;10.56;100.00;98403.22;5133916;27;20031;-68
2022/11/17 06:20:07;;;;;;;8.32;2.15;;;;;;;10.56;100.00;98402.34;5133884;27;20015;-68
2022/11/17 06:22:34;;;;;;;7.88;2.10;;;;;;;10.54;100.00;98415.63;5133879;27;20106;-68
2022/11/17 06:25:02;;;;;;;7.45;2.10;;;;;;;10.54;100.00;98410.34;5133865;27;20024;-68
2022/11/17 06:27:30;;;;;;;11.60;2.78;;;;;;;10.53;100.00;98419.13;5115317;28;20430;-68
2022/11/17 06:30:00;;;;;;;9.73;2.60;;;;;;;10.53;100.00;98430.59;5133565;28;20039;-68
2022/11/17 06:32:27;;;;;;;8.68;2.42;;;;;;;10.50;100.00;98413.97;5133789;28;20426;-68
2022/11/17 06:34:52;;;;;;;11.00;2.47;;;;;;;10.51;100.00;98426.25;5133603;28;20019;-69
2022/11/17 06:37:18;;;;;;;6.97;2.08;;;;;;;10.52;98.70;98415.63;5115485;28;20133;-69
2022/11/17 06:39:43;;;;;;;10.15;2.00;;;;;;;10.51;98.15;98437.69;5133712;28;20495;-68
2022/11/17 06:42:09;;;;;;;7.15;1.92;;;;;;;10.51;97.22;98418.34;5133876;28;20030;-68
2022/11/17 06:44:34;;;;;;;6.63;2.00;;;;;;;10.50;97.07;98435.97;5115222;28;20484;-69
2022/11/17 06:47:00;;;;;;;7.15;2.00;;;;;;;10.45;97.21;98437.88;5133617;28;20068;-68
2022/11/17 06:49:25;;;;;;;4.70;1.58;;;;;;;10.44;97.36;98440.53;5133627;28;20020;-68
2022/11/17 06:51:51;;;;;;;7.25;1.80;;;;;;;10.40;98.14;98445.00;5133577;28;20034;-68
2022/11/17 06:54:16;;;;;;;7.95;2.10;;;;;;;10.36;98.44;98443.38;5115258;28;20560;-67
2022/11/17 06:56:42;;;;;;;4.90;1.83;;;;;;;10.34;97.64;98450.47;5133648;28;20144;-68
2022/11/17 06:59:08;;;;;;;9.68;1.80;;;;;;;10.32;97.65;98452.31;5115321;28;20019;-68
2022/11/17 07:01:34;;;;;;;6.70;1.98;;;;;;;10.31;98.02;98450.53;5133387;28;20019;-68
2022/11/17 07:03:59;;;;;;;4.65;1.70;;;;;;;10.31;97.98;98458.47;5133206;28;20035;-68
2022/11/17 07:06:24;;;;;;;5.93;2.00;;;;;;;10.31;97.14;98461.09;5134116;27;20068;-69
2022/11/17 07:08:50;;;;;;;7.55;2.20;;;;;;;10.29;97.49;98447.09;5137452;27;20029;-67
2022/11/17 07:11:16;;;;;;;4.43;1.90;;;;;;;10.22;97.87;98471.88;5137502;27;20492;-67
2022/11/17 07:13:42;;;;;;;6.03;1.95;;;;;;;10.21;97.25;98462.22;5137307;27;20038;-67
2022/11/17 07:16:10;;;;;;;8.52;2.10;;;;;;;10.19;98.04;98461.38;5137279;27;20023;-67
2022/11/17 07:18:36;;;;;;;4.85;1.70;;;;;;;10.20;97.82;98473.69;5137238;27;20083;-67
2022/11/17 07:21:04;;;;;;;8.20;1.98;;;;;;;10.18;97.20;98472.84;5137208;27;20042;-66
2022/11/17 07:23:31;;;;;;;5.57;1.88;;;;;;;10.15;97.78;98470.28;5137160;27;20023;-68
2022/11/17 07:25:57;;;;;;;8.27;1.88;;;;;;;10.12;98.42;98470.38;5137170;27;20030;-67
2022/11/17 07:28:22;;;;;;;7.97;1.88;;;;;;;10.04;98.79;98479.34;5137097;27;20015;-67
2022/11/17 07:30:48;;;;;;;5.30;1.50;;;;;;;10.04;98.52;98483.78;5136874;27;20477;-67
2022/11/17 07:33:13;;;;;;;6.93;1.77;;;;;;;10.02;98.55;98486.47;5136777;27;20083;-67
2022/11/17 07:35:39;;;;;;;7.85;2.08;;;;;;;9.98;98.70;98482.16;5136955;27;20028;-66
2022/11/17 07:38:04;;;;;;;6.88;1.60;;;;;;;9.95;99.66;98491.91;5118497;27;20115;-66
2022/11/17 07:40:30;;;;;;;7.60;1.85;;;;;;;9.94;99.08;98496.34;5136961;27;20023;-66
2022/11/17 07:42:55;;;;;;;3.55;1.55;;;;;;;9.95;99.10;98481.38;5136966;27;20027;-66
2022/11/17 07:45:22;;;;;;;5.80;1.60;;;;;;;9.91;99.30;98488.47;5136812;27;20031;-66
2022/11/17 07:47:56;;;;;;;4.45;1.75;;;;;;;9.91;99.31;98506.09;5136944;27;20058;-66
2022/11/17 07:50:23;;;;;;;7.75;1.60;;;;;;;9.91;98.83;98499.03;5137068;27;20027;-68
2022/11/17 07:52:50;;;;;;;3.38;1.55;;;;;;;9.91;98.71;98512.22;5136785;27;20039;-66
2022/11/17 07:55:15;;;;;;;2.88;1.38;;;;;;;9.87;98.62;98497.38;5136561;27;20443;-67
2022/11/17 07:57:41;;;;;;;7.15;1.80;;;;;;;9.89;98.41;98508.78;5136488;27;20027;-67
2022/11/17 08:00:07;;;;;;;2.05;1.33;;;;;;;9.93;98.30;98525.38;5136540;27;20038;-67
2022/11/17 08:02:32;;;;;;;4.35;1.50;;;;;;;9.95;97.37;98511.25;5136200;27;20054;-67
2022/11/17 08:04:58;;;;;;;2.58;1.50;;;;;;;9.92;97.91;98524.50;5136171;27;20019;-67
2022/11/17 08:07:23;;;;;;;7.57;2.50;;;;;;;9.95;97.72;98515.66;5136046;27;20437;-67
2022/11/17 08:09:48;;;;;;;5.28;1.63;;;;;;;9.94;98.27;98524.50;5136183;27;20023;-68
2022/11/17 08:12:14;;;;;;;5.97;1.70;;;;;;;9.89;98.51;98536.88;5136303;27;20429;-66
2022/11/17 08:14:39;;;;;;;3.35;1.50;;;;;;;9.92;98.02;98521.00;5136176;27;20094;-67
2022/11/17 08:17:04;;;;;;;4.22;1.50;;;;;;;9.92;97.74;98532.41;5135429;27;20035;-66
2022/11/17 08:19:30;;;;;;;3.28;1.40;;;;;;;9.89;98.00;98536.88;5136318;27;20030;-68
2022/11/17 08:21:55;;;;;;;4.97;1.50;;;;;;;9.90;97.67;98536.88;5136098;27;20464;-68
2022/11/17 08:24:21;;;;;;;4.30;1.50;;;;;;;9.89;98.12;98550.09;5136145;27;20034;-67
2022/11/17 08:26:46;;;;;;;4.05;1.52;;;;;;;9.86;97.59;98560.72;5135741;27;20114;-67
2022/11/17 08:29:11;;;;;;;3.35;1.40;;;;;;;9.86;97.95;98550.19;5135738;27;20026;-67
2022/11/17 08:31:37;;;;;;;3.28;1.60;;;;;;;9.85;98.03;98538.75;5135344;27;20131;-66
2022/11/17 08:34:03;;;;;;;3.03;1.35;;;;;;;9.83;98.53;98563.44;5117196;27;20134;-67
2022/11/17 08:36:28;;;;;;;3.97;1.60;;;;;;;9.83;97.85;98556.38;5135587;27;20027;-67
2022/11/17 08:38:53;;;;;;;4.57;1.75;;;;;;;9.76;97.99;98560.03;5136111;27;20031;-67
2022/11/17 08:41:20;;;;;;;6.50;1.30;;;;;;;9.76;98.22;98557.41;5135807;27;20065;-67
2022/11/17 08:43:46;;;;;;;3.38;1.30;;;;;;;9.71;98.05;98565.44;5135630;27;20023;-67
2022/11/17 08:46:12;;;;;;;2.38;1.38;;;;;;;9.70;98.47;98570.75;5135649;27;20031;-66
2022/11/17 08:48:38;;;;;;;3.70;1.20;;;;;;;9.70;97.88;98560.19;5135504;27;20102;-66
2022/11/17 08:51:06;;;;;;;3.28;1.42;;;;;;;9.74;97.88;98559.22;5135770;27;20110;-67
2022/11/17 08:53:31;;;;;;;3.45;1.50;;;;;;;9.66;98.44;98558.53;5116994;27;20020;-67
2022/11/17 08:55:57;;;;;;;2.47;1.27;;;;;;;9.59;98.91;98556.91;5117107;27;20034;-67
2022/11/17 08:58:22;;;;;;;3.92;1.50;;;;;;;9.65;98.55;98568.22;5135329;27;20020;-67
2022/11/17 09:00:47;;;;;;;2.05;1.23;;;;;;;9.66;98.22;98577.00;5135230;27;20077;-67
2022/11/17 09:03:13;;;;;;;2.33;1.50;;;;;;;9.62;98.47;98586.72;5135035;27;20034;-67
2022/11/17 09:05:41;;;;;;;3.92;1.45;;;;;;;9.63;98.76;98572.63;5135216;27;20023;-67
2022/11/17 09:08:07;;;;;;;2.67;1.35;;;;;;;9.65;97.37;98581.41;5135062;27;20034;-67
2022/11/17 09:10:35;;;;;;;4.55;1.55;;;;;;;9.67;96.66;98584.84;5116969;27;20425;-67
2022/11/17 09:13:00;;;;;;;4.72;1.60;;;;;;;9.71;97.42;98580.38;5135110;27;20023;-67
2022/11/17 09:15:25;;;;;;;5.85;1.60;;;;;;;9.71;97.25;98581.25;5116796;27;20038;-67
2022/11/17 09:17:51;;;;;;;4.60;1.65;;;;;;;9.72;96.63;98592.66;5134869;27;20383;-67
2022/11/17 09:20:18;;;;;;;6.13;1.70;;;;;;;9.74;97.67;98593.50;5134909;27;20023;-69
2022/11/17 09:22:44;;;;;;;6.00;1.70;;;;;;;9.71;97.22;98599.72;5134740;27;20027;-67
2022/11/17 09:25:11;;;;;;;4.88;1.70;;;;;;;9.73;96.40;98600.56;5116442;27;20050;-67
2022/11/17 09:27:36;;;;;;;3.65;1.70;;;;;;;9.77;96.51;98604.00;5134799;27;20031;-68
2022/11/17 09:30:02;;;;;;;4.63;1.63;;;;;;;9.72;96.92;98604.09;5115165;27;20453;-67
2022/11/17 09:32:28;;;;;;;4.55;1.50;;;;;;;9.73;96.39;98603.19;5134741;27;20047;-67
2022/11/17 09:34:53;;;;;;;3.65;1.70;;;;;;;9.74;97.19;98604.06;5134464;27;20023;-68
2022/11/17 09:37:19;;;;;;;8.68;1.90;;;;;;;9.75;97.26;98613.69;5134557;27;20107;-69
2022/11/17 09:39:44;;;;;;;4.25;1.40;;;;;;;9.75;96.37;98609.28;5134537;27;20027;-68
2022/11/17 09:42:21;;;;;;;5.18;1.80;;;;;;;9.83;96.53;98618.81;5134432;27;20028;-68
2022/11/17 09:45:03;;;;;;;3.58;1.40;;;;;;;9.87;96.45;98608.16;5134476;27;20119;-68
2022/11/17 09:47:51;;;;;;;5.97;1.80;;;;;;;9.93;95.56;98615.91;5115990;27;20487;-68
2022/11/17 09:50:35;;;;;;;4.25;1.52;;;;;;;10.02;96.54;98622.75;5134423;27;20027;-68
2022/11/17 09:53:10;;;;;;;3.90;1.75;;;;;;;10.17;94.67;98630.34;5134408;27;20033;-67
2022/11/17 09:55:41;;;;;;;4.53;1.77;;;;;;;10.19;94.68;98641.75;5133811;27;20095;-66
2022/11/17 09:58:33;;;;;;;7.97;1.90;;;;;;;10.26;93.72;98634.56;5134255;27;20139;-67
2022/11/17 10:00:59;;;;;;;6.43;1.70;;;;;;;10.29;93.90;98637.16;5134270;27;20015;-68
2022/11/17 10:03:28;;;;;;;7.78;2.00;;;;;;;10.34;93.43;98642.31;5133828;27;20031;-68
2022/11/17 10:05:54;;;;;;;4.00;1.67;;;;;;;10.37;92.71;98639.59;5132812;27;20507;-68
2022/11/17 10:08:34;;;;;;;5.80;1.80;;;;;;;10.37;92.78;98666.88;5134088;27;20032;-68
2022/11/17 10:11:30;;;;;;;7.22;1.80;;;;;;;10.39;92.34;98645.69;5134136;27;20050;-65
2022/11/17 10:13:48;;;;;;;9.40;2.00;;;;;;;10.39;91.73;98648.34;5133849;27;20046;-66
2022/11/17 10:16:14;;;;;;;8.30;2.28;;;;;;;10.46;90.93;98650.81;5134219;27;20098;-67
2022/11/17 10:18:39;;;;;;;4.13;1.45;;;;;;;10.50;91.42;98660.38;5133977;27;20104;-66
2022/11/17 10:21:08;;;;;;;6.85;1.60;;;;;;;10.55;90.90;98709.59;5134211;27;20488;-66
2022/11/17 10:23:36;;;;;;;4.07;1.60;;;;;;;10.61;90.26;98662.75;5133756;27;20042;-66
2022/11/17 10:26:07;;;;;;;7.80;1.90;;;;;;;10.72;90.10;98659.88;5132587;27;20023;-66
2022/11/17 10:28:33;;;;;;;7.20;1.63;;;;;;;10.82;89.33;98665.78;5133899;27;20050;-65
2022/11/17 10:31:11;;;;;;;3.15;1.40;;;;;;;10.85;88.42;98669.22;5132041;28;20443;-66
2022/11/17 10:33:40;;;;;;;8.02;1.50;;;;;;;10.92;87.12;98667.25;5132009;28;20536;-64
2022/11/17 10:36:46;;;;;;;4.45;1.73;;;;;;;11.00;86.37;98682.00;5127071;28;20020;-65
2022/11/17 10:39:35;;;;;;;4.13;1.50;;;;;;;11.09;85.81;98690.63;5114890;28;20036;-65
2022/11/17 10:42:14;;;;;;;4.78;1.73;;;;;;;11.13;85.01;98672.00;5134667;27;20428;-66
2022/11/17 10:44:42;;;;;;;4.53;1.63;;;;;;;11.22;84.22;98686.75;5135269;27;20012;-66
2022/11/17 10:47:25;;;;;;;4.75;1.45;;;;;;;11.25;84.18;98690.19;5137211;27;20357;-65
2022/11/17 10:50:07;;;;;;;6.35;1.65;;;;;;;11.27;84.29;98687.50;5136639;27;20464;-65
2022/11/17 10:52:32;;;;;;;7.05;2.22;;;;;;;11.29;83.64;98690.97;5137858;27;20035;-66
2022/11/17 10:55:24;;;;;;;4.82;1.67;;;;;;;11.27;83.25;98692.81;5137721;27;20031;-66
2022/11/17 10:57:57;;;;;;;3.08;1.30;;;;;;;11.19;82.10;98693.00;5136559;27;20106;-65
2022/11/17 11:00:25;;;;;;;4.68;1.40;;;;;;;11.15;83.06;98693.97;5136444;27;20034;-65
2022/11/17 11:03:06;;;;;;;3.55;1.67;;;;;;;11.12;82.08;98695.84;5137508;27;20015;-65
2022/11/17 11:05:32;;;;;;;2.33;1.30;;;;;;;11.10;83.61;98698.53;5137569;27;20034;-65
2022/11/17 11:08:18;;;;;;;2.33;1.30;;;;;;;11.06;84.36;98690.72;5137541;27;20033;-66
2022/11/17 11:10:48;;;;;;;3.20;1.50;;;;;;;11.03;85.01;98718.09;5137535;27;20026;-66
2022/11/17 11:13:39;;;;;;;3.47;1.50;;;;;;;10.98;85.09;98706.75;5137373;27;20105;-68
2022/11/17 11:16:05;;;;;;;4.65;1.63;;;;;;;10.94;85.67;98702.47;5136135;27;20060;-65
2022/11/17 11:18:30;;;;;;;3.75;1.60;;;;;;;10.89;86.05;98702.59;5137261;27;20104;-66
2022/11/17 11:21:06;;;;;;;5.85;1.80;;;;;;;10.88;86.01;98700.00;5137266;27;20032;-66
2022/11/17 11:24:19;;;;;;;11.57;1.80;;;;;;;10.84;87.05;98712.41;5137043;27;20492;-66
2022/11/17 11:27:03;;;;;;;3.53;1.52;;;;;;;10.87;86.95;98714.09;5137259;27;20015;-66
2022/11/17 11:29:49;;;;;;;4.18;1.45;;;;;;;10.87;86.44;98722.00;5137099;27;20106;-67
2022/11/17 11:32:42;;;;;;;4.32;1.63;;;;;;;10.88;86.47;98713.19;5136852;27;20047;-66
2022/11/17 11:35:45;;;;;;;5.30;1.90;;;;;;;10.93;84.89;98721.88;5137061;27;20122;-66
2022/11/17 11:38:19;;;;;;;4.45;1.70;;;;;;;10.93;85.27;98735.09;5136965;27;20024;-66
2022/11/17 11:41:09;;;;;;;4.20;1.40;;;;;;;10.96;85.94;98727.97;5136932;27;20042;-66
2022/11/17 11:43:43;;;;;;;4.07;1.40;;;;;;;10.93;84.41;98729.81;5136808;27;20023;-67
2022/11/17 11:46:35;;;;;;;4.43;1.50;;;;;;;10.90;85.48;98748.38;5136675;27;20030;-67
2022/11/17 11:49:27;;;;;;;2.55;1.35;;;;;;;10.90;85.35;98740.44;5136734;27;20076;-66
2022/11/17 11:51:52;;;;;;;6.40;1.92;;;;;;;10.90;85.53;98735.16;5135436;27;20092;-67
2022/11/17 11:54:40;;;;;;;2.30;1.42;;;;;;;10.89;85.09;98739.56;5136395;27;20019;-66
2022/11/17 11:57:12;;;;;;;6.10;1.98;;;;;;;10.89;84.55;98738.72;5136528;27;20023;-68
2022/11/17 12:00:01;;;;;;;4.78;1.45;;;;;;;10.93;85.01;98750.94;5136795;27;20499;-65
2022/11/17 12:02:50;;;;;;;4.40;1.67;;;;;;;10.95;84.51;98752.63;5136493;27;20045;-66
2022/11/17 12:05:37;;;;;;;3.67;1.55;;;;;;;10.95;84.22;98742.06;5136425;27;20031;-66
2022/11/17 12:08:36;;;;;;;5.40;1.50;;;;;;;10.99;83.09;98766.63;5135190;27;20023;-66
2022/11/17 12:13:55;;;;;;;6.18;1.50;;;;;;;10.99;82.76;98787.78;5136096;27;20083;-66
2022/11/17 12:16:34;;;;;;;6.90;1.70;;;;;;;10.95;83.46;98747.34;5136512;27;20116;-66
2022/11/17 12:19:00;;;;;;;3.60;1.40;;;;;;;10.98;83.04;98755.19;5136164;27;20031;-66